sensor_id;sensor_type;location;lat;lon;timestamp;pressure;altitude;pressure_sealevel;temperature;humidity
9676;BME280;4876;42.656;23.292;2023-06-22T00:00:50;94794.19;;;21.18;66.40
9676;BME280;4876;42.656;23.292;2023-06-22T00:03:20;94793.94;;;20.96;67.07
9676;BME280;4876;42.656;23.292;2023-06-22T00:05:48;94797.91;;;20.80;68.78
9676;BME280;4876;42.656;23.292;2023-06-22T00:08:15;94798.75;;;20.84;68.83
9676;BME280;4876;42.656;23.292;2023-06-22T00:10:43;94776.63;;;20.87;68.19
9676;BME280;4876;42.656;23.292;2023-06-22T00:13:10;94788.09;;;21.21;67.47
9676;BME280;4876;42.656;23.292;2023-06-22T00:15:38;94785.47;;;21.24;67.31
9676;BME280;4876;42.656;23.292;2023-06-22T00:18:06;94776.34;;;21.29;67.35
9676;BME280;4876;42.656;23.292;2023-06-22T00:20:34;94778.03;;;21.44;66.44
9676;BME280;4876;42.656;23.292;2023-06-22T00:23:03;94779.69;;;21.60;66.38
9676;BME280;4876;42.656;23.292;2023-06-22T00:25:34;94772.63;;;21.41;66.76
9676;BME280;4876;42.656;23.292;2023-06-22T00:28:01;94769.25;;;21.47;67.03
9676;BME280;4876;42.656;23.292;2023-06-22T00:30:28;94759.31;;;21.48;67.21
9676;BME280;4876;42.656;23.292;2023-06-22T00:32:55;94756.75;;;21.59;66.70
9676;BME280;4876;42.656;23.292;2023-06-22T00:35:22;94756.34;;;21.57;66.70
9676;BME280;4876;42.656;23.292;2023-06-22T00:37:50;94762.63;;;21.75;64.93
9676;BME280;4876;42.656;23.292;2023-06-22T00:40:17;94758.81;;;21.35;67.04
9676;BME280;4876;42.656;23.292;2023-06-22T00:42:47;94767.28;;;21.37;67.77
9676;BME280;4876;42.656;23.292;2023-06-22T00:45:13;94749.81;;;21.17;68.48
9676;BME280;4876;42.656;23.292;2023-06-22T00:47:41;94752.31;;;21.33;68.02
9676;BME280;4876;42.656;23.292;2023-06-22T00:50:16;94764.28;;;21.46;67.30
9676;BME280;4876;42.656;23.292;2023-06-22T00:52:47;94759.75;;;21.54;66.76
9676;BME280;4876;42.656;23.292;2023-06-22T00:55:16;94761.81;;;21.71;65.81
9676;BME280;4876;42.656;23.292;2023-06-22T00:57:43;94762.03;;;21.52;66.70
9676;BME280;4876;42.656;23.292;2023-06-22T01:00:12;94769.47;;;21.69;65.55
9676;BME280;4876;42.656;23.292;2023-06-22T01:02:45;94751.53;;;21.32;66.90
9676;BME280;4876;42.656;23.292;2023-06-22T01:05:13;94773.97;;;21.24;68.07
9676;BME280;4876;42.656;23.292;2023-06-22T01:07:43;94778.16;;;21.21;68.08
9676;BME280;4876;42.656;23.292;2023-06-22T01:10:18;94775.09;;;21.23;68.60
9676;BME280;4876;42.656;23.292;2023-06-22T01:12:53;94780.13;;;21.28;68.07
9676;BME280;4876;42.656;23.292;2023-06-22T01:15:25;94782.19;;;21.38;68.38
9676;BME280;4876;42.656;23.292;2023-06-22T01:17:56;94776.31;;;21.63;66.75
9676;BME280;4876;42.656;23.292;2023-06-22T01:20:25;94764.78;;;21.59;66.76
9676;BME280;4876;42.656;23.292;2023-06-22T01:23:05;94773.19;;;21.61;66.18
9676;BME280;4876;42.656;23.292;2023-06-22T01:25:41;94779.31;;;21.58;65.95
9676;BME280;4876;42.656;23.292;2023-06-22T01:28:23;94773.13;;;21.54;65.56
9676;BME280;4876;42.656;23.292;2023-06-22T01:30:53;94775.38;;;21.44;65.60
9676;BME280;4876;42.656;23.292;2023-06-22T01:33:33;94788.16;;;21.28;65.92
9676;BME280;4876;42.656;23.292;2023-06-22T01:36:02;94789.41;;;21.01;66.70
9676;BME280;4876;42.656;23.292;2023-06-22T01:38:29;94796.59;;;20.66;68.89
9676;BME280;4876;42.656;23.292;2023-06-22T01:40:57;94785.16;;;20.66;70.11
9676;BME280;4876;42.656;23.292;2023-06-22T01:43:26;94779.66;;;20.55;70.66
9676;BME280;4876;42.656;23.292;2023-06-22T01:45:55;94796.13;;;20.87;69.79
9676;BME280;4876;42.656;23.292;2023-06-22T01:48:23;94785.91;;;20.96;69.50
9676;BME280;4876;42.656;23.292;2023-06-22T01:50:51;94787.75;;;20.92;69.92
9676;BME280;4876;42.656;23.292;2023-06-22T01:53:20;94795.28;;;20.83;70.06
9676;BME280;4876;42.656;23.292;2023-06-22T01:55:46;94800.59;;;20.80;69.86
9676;BME280;4876;42.656;23.292;2023-06-22T01:58:13;94796.13;;;20.87;69.57
9676;BME280;4876;42.656;23.292;2023-06-22T02:00:44;94787.56;;;20.75;70.35
9676;BME280;4876;42.656;23.292;2023-06-22T02:03:19;94799.09;;;20.82;70.77
9676;BME280;4876;42.656;23.292;2023-06-22T02:05:49;94803.91;;;21.00;70.19
9676;BME280;4876;42.656;23.292;2023-06-22T02:08:20;94803.38;;;21.24;68.85
9676;BME280;4876;42.656;23.292;2023-06-22T02:10:48;94804.13;;;21.21;68.60
9676;BME280;4876;42.656;23.292;2023-06-22T02:13:17;94815.81;;;21.39;67.99
9676;BME280;4876;42.656;23.292;2023-06-22T02:15:45;94797.22;;;21.54;67.26
9676;BME280;4876;42.656;23.292;2023-06-22T02:18:13;94766.91;;;21.39;66.64
9676;BME280;4876;42.656;23.292;2023-06-22T02:20:41;94792.13;;;21.41;67.22
9676;BME280;4876;42.656;23.292;2023-06-22T02:23:09;94789.44;;;21.38;67.33
9676;BME280;4876;42.656;23.292;2023-06-22T02:25:36;94791.34;;;21.37;67.26
9676;BME280;4876;42.656;23.292;2023-06-22T02:28:03;94796.28;;;21.35;67.28
9676;BME280;4876;42.656;23.292;2023-06-22T02:30:30;94794.53;;;21.50;66.97
9676;BME280;4876;42.656;23.292;2023-06-22T02:32:57;94792.91;;;21.42;67.46
9676;BME280;4876;42.656;23.292;2023-06-22T02:35:26;94788.31;;;21.42;66.82
9676;BME280;4876;42.656;23.292;2023-06-22T02:37:58;94796.56;;;21.27;67.61
9676;BME280;4876;42.656;23.292;2023-06-22T02:40:26;94792.59;;;21.13;68.63
9676;BME280;4876;42.656;23.292;2023-06-22T02:42:52;94788.91;;;21.25;68.45
9676;BME280;4876;42.656;23.292;2023-06-22T02:45:19;94792.69;;;21.24;67.22
9676;BME280;4876;42.656;23.292;2023-06-22T02:47:46;94793.28;;;21.07;67.97
9676;BME280;4876;42.656;23.292;2023-06-22T02:50:14;94788.34;;;20.79;68.76
9676;BME280;4876;42.656;23.292;2023-06-22T02:52:41;94791.94;;;20.33;72.08
9676;BME280;4876;42.656;23.292;2023-06-22T02:55:09;94794.44;;;20.46;71.77
9676;BME280;4876;42.656;23.292;2023-06-22T02:57:36;94789.66;;;20.62;70.26
9676;BME280;4876;42.656;23.292;2023-06-22T03:00:04;94793.78;;;20.56;71.17
9676;BME280;4876;42.656;23.292;2023-06-22T03:02:43;94801.28;;;20.73;69.79
9676;BME280;4876;42.656;23.292;2023-06-22T03:05:10;94796.97;;;20.65;70.95
9676;BME280;4876;42.656;23.292;2023-06-22T03:07:39;94789.19;;;20.83;70.69
9676;BME280;4876;42.656;23.292;2023-06-22T03:10:09;94787.94;;;21.07;69.94
9676;BME280;4876;42.656;23.292;2023-06-22T03:12:36;94803.44;;;21.28;68.52
9676;BME280;4876;42.656;23.292;2023-06-22T03:15:05;94786.63;;;21.27;67.58
9676;BME280;4876;42.656;23.292;2023-06-22T03:17:33;94812.25;;;21.65;67.32
9676;BME280;4876;42.656;23.292;2023-06-22T03:20:00;94814.75;;;21.88;66.97
9676;BME280;4876;42.656;23.292;2023-06-22T03:22:29;94828.94;;;22.37;64.72
9676;BME280;4876;42.656;23.292;2023-06-22T03:24:56;94826.66;;;22.39;64.34
9676;BME280;4876;42.656;23.292;2023-06-22T03:27:24;94822.19;;;22.57;62.96
9676;BME280;4876;42.656;23.292;2023-06-22T03:29:51;94833.97;;;22.45;63.78
9676;BME280;4876;42.656;23.292;2023-06-22T03:32:18;94831.00;;;22.57;64.92
9676;BME280;4876;42.656;23.292;2023-06-22T03:34:45;94837.81;;;23.14;63.17
9676;BME280;4876;42.656;23.292;2023-06-22T03:37:13;94834.09;;;23.57;61.19
9676;BME280;4876;42.656;23.292;2023-06-22T03:39:40;94837.25;;;23.95;59.97
9676;BME280;4876;42.656;23.292;2023-06-22T03:42:07;94845.72;;;24.11;59.80
9676;BME280;4876;42.656;23.292;2023-06-22T03:44:35;94848.03;;;24.16;59.25
9676;BME280;4876;42.656;23.292;2023-06-22T03:47:03;94851.06;;;23.76;61.16
9676;BME280;4876;42.656;23.292;2023-06-22T03:49:32;94851.97;;;23.07;62.40
9676;BME280;4876;42.656;23.292;2023-06-22T03:52:00;94850.38;;;22.95;63.83
9676;BME280;4876;42.656;23.292;2023-06-22T03:54:28;94859.75;;;22.64;64.96
9676;BME280;4876;42.656;23.292;2023-06-22T03:56:55;94862.91;;;22.22;67.46
9676;BME280;4876;42.656;23.292;2023-06-22T03:59:22;94853.03;;;21.89;68.71
9676;BME280;4876;42.656;23.292;2023-06-22T04:01:51;94852.53;;;21.39;71.56
9676;BME280;4876;42.656;23.292;2023-06-22T04:04:17;94855.34;;;21.23;69.64
9676;BME280;4876;42.656;23.292;2023-06-22T04:06:44;94856.38;;;20.81;73.37
9676;BME280;4876;42.656;23.292;2023-06-22T04:09:11;94847.66;;;20.58;74.91
9676;BME280;4876;42.656;23.292;2023-06-22T04:11:38;94852.13;;;20.77;74.71
9676;BME280;4876;42.656;23.292;2023-06-22T04:14:05;94846.13;;;21.17;71.13
9676;BME280;4876;42.656;23.292;2023-06-22T04:16:32;94842.22;;;21.78;68.48
9676;BME280;4876;42.656;23.292;2023-06-22T04:19:00;94835.03;;;21.89;67.41
9676;BME280;4876;42.656;23.292;2023-06-22T04:21:27;94832.25;;;21.75;68.66
9676;BME280;4876;42.656;23.292;2023-06-22T04:23:54;94830.88;;;21.55;70.37
9676;BME280;4876;42.656;23.292;2023-06-22T04:26:21;94825.69;;;21.69;70.99
9676;BME280;4876;42.656;23.292;2023-06-22T04:28:47;94821.22;;;21.80;71.02
9676;BME280;4876;42.656;23.292;2023-06-22T04:31:17;94799.97;;;21.61;70.90
9676;BME280;4876;42.656;23.292;2023-06-22T04:33:45;94813.53;;;21.41;71.13
9676;BME280;4876;42.656;23.292;2023-06-22T04:36:13;94830.88;;;21.55;73.12
9676;BME280;4876;42.656;23.292;2023-06-22T04:38:40;94830.16;;;21.58;70.90
9676;BME280;4876;42.656;23.292;2023-06-22T04:41:07;94828.88;;;21.85;70.47
9676;BME280;4876;42.656;23.292;2023-06-22T04:43:39;94838.66;;;22.08;69.69
9676;BME280;4876;42.656;23.292;2023-06-22T04:46:06;94827.00;;;21.89;69.62
9676;BME280;4876;42.656;23.292;2023-06-22T04:48:33;94836.94;;;22.33;66.97
9676;BME280;4876;42.656;23.292;2023-06-22T04:51:00;94830.59;;;22.08;68.29
9676;BME280;4876;42.656;23.292;2023-06-22T04:53:30;94834.09;;;22.67;65.61
9676;BME280;4876;42.656;23.292;2023-06-22T04:55:57;94834.25;;;22.92;65.56
9676;BME280;4876;42.656;23.292;2023-06-22T04:58:24;94853.50;;;23.04;64.42
9676;BME280;4876;42.656;23.292;2023-06-22T05:00:54;94851.59;;;23.08;64.56
9676;BME280;4876;42.656;23.292;2023-06-22T05:03:22;94854.75;;;23.32;64.25
9676;BME280;4876;42.656;23.292;2023-06-22T05:05:51;94854.78;;;23.43;64.74
9676;BME280;4876;42.656;23.292;2023-06-22T05:08:19;94847.81;;;23.24;65.38
9676;BME280;4876;42.656;23.292;2023-06-22T05:10:47;94847.13;;;23.52;64.03
9676;BME280;4876;42.656;23.292;2023-06-22T05:13:14;94853.72;;;23.65;62.41
9676;BME280;4876;42.656;23.292;2023-06-22T05:15:40;94850.31;;;23.97;63.08
9676;BME280;4876;42.656;23.292;2023-06-22T05:18:08;94837.25;;;24.09;61.89
9676;BME280;4876;42.656;23.292;2023-06-22T05:20:37;94846.47;;;24.01;62.31
9676;BME280;4876;42.656;23.292;2023-06-22T05:23:04;94821.91;;;23.67;63.48
9676;BME280;4876;42.656;23.292;2023-06-22T05:25:31;94842.59;;;23.70;62.93
9676;BME280;4876;42.656;23.292;2023-06-22T05:27:59;94851.88;;;24.23;63.02
9676;BME280;4876;42.656;23.292;2023-06-22T05:30:27;94849.22;;;24.37;61.86
9676;BME280;4876;42.656;23.292;2023-06-22T05:32:54;94852.66;;;24.48;61.50
9676;BME280;4876;42.656;23.292;2023-06-22T05:35:20;94862.59;;;24.15;61.75
9676;BME280;4876;42.656;23.292;2023-06-22T05:37:47;94867.63;;;24.49;61.40
9676;BME280;4876;42.656;23.292;2023-06-22T05:40:14;94868.75;;;24.73;61.03
9676;BME280;4876;42.656;23.292;2023-06-22T05:42:41;94872.63;;;24.54;60.94
9676;BME280;4876;42.656;23.292;2023-06-22T05:45:09;94877.59;;;24.20;61.49
9676;BME280;4876;42.656;23.292;2023-06-22T05:47:36;94879.50;;;24.05;60.94
9676;BME280;4876;42.656;23.292;2023-06-22T05:50:04;94886.41;;;24.21;60.74
9676;BME280;4876;42.656;23.292;2023-06-22T05:52:34;94890.19;;;23.77;63.76
9676;BME280;4876;42.656;23.292;2023-06-22T05:55:02;94887.97;;;24.25;61.41
9676;BME280;4876;42.656;23.292;2023-06-22T05:57:29;94894.53;;;24.46;61.64
9676;BME280;4876;42.656;23.292;2023-06-22T05:59:55;94884.13;;;24.26;62.63
9676;BME280;4876;42.656;23.292;2023-06-22T06:02:24;94888.72;;;24.04;63.46
9676;BME280;4876;42.656;23.292;2023-06-22T06:04:50;94869.13;;;24.14;62.30
9676;BME280;4876;42.656;23.292;2023-06-22T06:07:18;94891.00;;;24.98;61.99
9676;BME280;4876;42.656;23.292;2023-06-22T06:09:44;94884.88;;;24.80;61.47
9676;BME280;4876;42.656;23.292;2023-06-22T06:12:11;94876.81;;;24.27;64.03
9676;BME280;4876;42.656;23.292;2023-06-22T06:14:38;94876.88;;;24.41;62.85
9676;BME280;4876;42.656;23.292;2023-06-22T06:17:05;94870.69;;;24.73;62.10
9676;BME280;4876;42.656;23.292;2023-06-22T06:19:33;94862.56;;;24.94;62.22
9676;BME280;4876;42.656;23.292;2023-06-22T06:22:00;94864.94;;;24.49;62.10
9676;BME280;4876;42.656;23.292;2023-06-22T06:24:27;94865.69;;;24.67;62.89
9676;BME280;4876;42.656;23.292;2023-06-22T06:26:54;94861.72;;;25.26;60.20
9676;BME280;4876;42.656;23.292;2023-06-22T06:29:20;94859.41;;;25.20;60.22
9676;BME280;4876;42.656;23.292;2023-06-22T06:31:49;94870.19;;;25.24;60.96
9676;BME280;4876;42.656;23.292;2023-06-22T06:34:15;94873.72;;;25.91;59.31
9676;BME280;4876;42.656;23.292;2023-06-22T06:36:44;94868.13;;;26.23;59.34
9676;BME280;4876;42.656;23.292;2023-06-22T06:39:10;94868.13;;;26.19;59.03
9676;BME280;4876;42.656;23.292;2023-06-22T06:41:37;94858.09;;;26.23;58.12
9676;BME280;4876;42.656;23.292;2023-06-22T06:44:04;94858.69;;;25.97;59.51
9676;BME280;4876;42.656;23.292;2023-06-22T06:46:31;94854.47;;;26.48;58.56
9676;BME280;4876;42.656;23.292;2023-06-22T06:48:58;94859.22;;;26.74;56.18
9676;BME280;4876;42.656;23.292;2023-06-22T06:51:24;94858.78;;;27.17;55.38
9676;BME280;4876;42.656;23.292;2023-06-22T06:53:53;94842.88;;;26.89;56.56
9676;BME280;4876;42.656;23.292;2023-06-22T06:56:19;94847.22;;;26.34;58.64
9676;BME280;4876;42.656;23.292;2023-06-22T06:58:46;94844.88;;;26.81;56.64
9676;BME280;4876;42.656;23.292;2023-06-22T07:01:14;94846.22;;;27.00;56.26
9676;BME280;4876;42.656;23.292;2023-06-22T07:03:40;94841.75;;;27.20;56.80
9676;BME280;4876;42.656;23.292;2023-06-22T07:06:08;94838.44;;;27.09;56.71
9676;BME280;4876;42.656;23.292;2023-06-22T07:08:35;94850.28;;;27.19;55.59
9676;BME280;4876;42.656;23.292;2023-06-22T07:11:03;94843.84;;;27.09;56.08
9676;BME280;4876;42.656;23.292;2023-06-22T07:13:30;94838.00;;;27.45;55.76
9676;BME280;4876;42.656;23.292;2023-06-22T07:15:57;94843.00;;;27.46;54.66
9676;BME280;4876;42.656;23.292;2023-06-22T07:18:24;94845.66;;;27.80;55.26
9676;BME280;4876;42.656;23.292;2023-06-22T07:20:51;94843.78;;;27.47;56.66
9676;BME280;4876;42.656;23.292;2023-06-22T07:23:18;94840.25;;;27.50;57.15
9676;BME280;4876;42.656;23.292;2023-06-22T07:25:45;94844.84;;;27.83;56.15
9676;BME280;4876;42.656;23.292;2023-06-22T07:28:13;94843.34;;;28.06;52.25
9676;BME280;4876;42.656;23.292;2023-06-22T07:30:40;94842.31;;;28.23;52.06
9676;BME280;4876;42.656;23.292;2023-06-22T07:33:07;94833.94;;;27.90;52.04
9676;BME280;4876;42.656;23.292;2023-06-22T07:35:34;94845.66;;;27.80;53.62
9676;BME280;4876;42.656;23.292;2023-06-22T07:38:00;94847.13;;;28.39;52.75
9676;BME280;4876;42.656;23.292;2023-06-22T07:40:27;94853.72;;;28.81;51.39
9676;BME280;4876;42.656;23.292;2023-06-22T07:42:54;94856.34;;;29.08;50.82
9676;BME280;4876;42.656;23.292;2023-06-22T07:45:22;94858.75;;;29.62;50.54
9676;BME280;4876;42.656;23.292;2023-06-22T07:47:50;94855.94;;;29.10;52.96
9676;BME280;4876;42.656;23.292;2023-06-22T07:50:16;94855.66;;;29.64;50.33
9676;BME280;4876;42.656;23.292;2023-06-22T07:52:43;94856.03;;;29.98;48.39
9676;BME280;4876;42.656;23.292;2023-06-22T07:55:10;94851.25;;;29.86;48.95
9676;BME280;4876;42.656;23.292;2023-06-22T07:57:37;94856.41;;;29.44;50.82
9676;BME280;4876;42.656;23.292;2023-06-22T08:00:05;94856.19;;;29.35;49.99
9676;BME280;4876;42.656;23.292;2023-06-22T08:02:39;94854.03;;;29.46;50.58
9676;BME280;4876;42.656;23.292;2023-06-22T08:05:07;94849.94;;;29.58;49.95
9676;BME280;4876;42.656;23.292;2023-06-22T08:07:34;94845.66;;;29.21;50.63
9676;BME280;4876;42.656;23.292;2023-06-22T08:10:02;94846.44;;;28.78;52.21
9676;BME280;4876;42.656;23.292;2023-06-22T08:12:29;94830.00;;;28.89;52.62
9676;BME280;4876;42.656;23.292;2023-06-22T08:14:56;94841.69;;;29.26;52.06
9676;BME280;4876;42.656;23.292;2023-06-22T08:17:23;94832.84;;;29.41;51.94
9676;BME280;4876;42.656;23.292;2023-06-22T08:19:51;94815.75;;;28.41;53.35
9676;BME280;4876;42.656;23.292;2023-06-22T08:22:18;94828.94;;;28.39;54.01
9676;BME280;4876;42.656;23.292;2023-06-22T08:24:46;94831.41;;;28.74;54.01
9676;BME280;4876;42.656;23.292;2023-06-22T08:27:12;94822.47;;;28.06;57.79
9676;BME280;4876;42.656;23.292;2023-06-22T08:29:41;94827.38;;;28.62;56.40
9676;BME280;4876;42.656;23.292;2023-06-22T08:32:09;94828.84;;;29.10;53.55
9676;BME280;4876;42.656;23.292;2023-06-22T08:34:36;94815.84;;;29.21;52.76
9676;BME280;4876;42.656;23.292;2023-06-22T08:37:09;94825.03;;;29.43;52.52
9676;BME280;4876;42.656;23.292;2023-06-22T08:39:35;94831.38;;;29.37;52.27
9676;BME280;4876;42.656;23.292;2023-06-22T08:42:03;94831.75;;;29.39;52.07
9676;BME280;4876;42.656;23.292;2023-06-22T08:44:29;94831.31;;;29.40;51.44
9676;BME280;4876;42.656;23.292;2023-06-22T08:46:56;94838.09;;;29.48;51.99
9676;BME280;4876;42.656;23.292;2023-06-22T08:49:23;94830.66;;;28.96;54.75
9676;BME280;4876;42.656;23.292;2023-06-22T08:51:50;94829.09;;;28.52;54.71
9676;BME280;4876;42.656;23.292;2023-06-22T08:54:20;94825.53;;;28.79;53.73
9676;BME280;4876;42.656;23.292;2023-06-22T08:56:46;94821.47;;;28.67;53.91
9676;BME280;4876;42.656;23.292;2023-06-22T08:59:13;94821.19;;;29.05;52.49
9676;BME280;4876;42.656;23.292;2023-06-22T09:01:40;94811.31;;;29.54;50.74
9676;BME280;4876;42.656;23.292;2023-06-22T09:04:11;94812.44;;;29.57;50.86
9676;BME280;4876;42.656;23.292;2023-06-22T09:06:38;94799.84;;;29.46;49.57
9676;BME280;4876;42.656;23.292;2023-06-22T09:09:10;94786.44;;;29.39;52.44
9676;BME280;4876;42.656;23.292;2023-06-22T09:11:38;94798.41;;;29.22;53.67
9676;BME280;4876;42.656;23.292;2023-06-22T09:14:05;94801.91;;;29.03;51.65
9676;BME280;4876;42.656;23.292;2023-06-22T09:16:32;94811.84;;;28.66;51.67
9676;BME280;4876;42.656;23.292;2023-06-22T09:18:58;94815.28;;;28.47;51.83
9676;BME280;4876;42.656;23.292;2023-06-22T09:21:26;94812.25;;;28.64;52.25
9676;BME280;4876;42.656;23.292;2023-06-22T09:23:52;94808.94;;;28.77;49.76
9676;BME280;4876;42.656;23.292;2023-06-22T09:26:20;94810.81;;;28.80;48.79
9676;BME280;4876;42.656;23.292;2023-06-22T09:28:49;94812.25;;;29.08;46.85
9676;BME280;4876;42.656;23.292;2023-06-22T09:31:16;94812.88;;;29.15;47.38
9676;BME280;4876;42.656;23.292;2023-06-22T09:33:46;94812.72;;;29.22;48.12
9676;BME280;4876;42.656;23.292;2023-06-22T09:36:13;94817.16;;;29.53;47.96
9676;BME280;4876;42.656;23.292;2023-06-22T09:38:39;94816.78;;;29.50;46.60
9676;BME280;4876;42.656;23.292;2023-06-22T09:41:06;94814.78;;;29.55;45.58
9676;BME280;4876;42.656;23.292;2023-06-22T09:43:33;94808.63;;;29.87;45.24
9676;BME280;4876;42.656;23.292;2023-06-22T09:46:02;94809.31;;;29.38;46.50
9676;BME280;4876;42.656;23.292;2023-06-22T09:48:29;94819.88;;;29.33;46.74
9676;BME280;4876;42.656;23.292;2023-06-22T09:50:56;94803.09;;;29.38;45.92
9676;BME280;4876;42.656;23.292;2023-06-22T09:53:23;94815.22;;;29.33;45.07
9676;BME280;4876;42.656;23.292;2023-06-22T09:55:49;94802.84;;;29.32;45.84
9676;BME280;4876;42.656;23.292;2023-06-22T09:58:16;94794.63;;;29.36;46.17
9676;BME280;4876;42.656;23.292;2023-06-22T10:00:43;94804.72;;;29.15;46.88
9676;BME280;4876;42.656;23.292;2023-06-22T10:03:11;94793.09;;;29.55;46.32
9676;BME280;4876;42.656;23.292;2023-06-22T10:05:38;94793.63;;;29.66;47.29
9676;BME280;4876;42.656;23.292;2023-06-22T10:08:05;94791.91;;;29.36;47.80
9676;BME280;4876;42.656;23.292;2023-06-22T10:10:33;94795.75;;;29.38;46.25
9676;BME280;4876;42.656;23.292;2023-06-22T10:13:07;94801.91;;;29.03;46.79
9676;BME280;4876;42.656;23.292;2023-06-22T10:15:35;94796.16;;;29.01;46.10
9676;BME280;4876;42.656;23.292;2023-06-22T10:18:03;94800.69;;;29.23;45.07
9676;BME280;4876;42.656;23.292;2023-06-22T10:20:31;94789.88;;;29.60;43.70
9676;BME280;4876;42.656;23.292;2023-06-22T10:22:58;94789.00;;;29.46;44.25
9676;BME280;4876;42.656;23.292;2023-06-22T10:25:25;94791.44;;;29.77;43.06
9676;BME280;4876;42.656;23.292;2023-06-22T10:27:51;94790.66;;;29.93;43.77
9676;BME280;4876;42.656;23.292;2023-06-22T10:30:18;94788.91;;;30.02;43.64
9676;BME280;4876;42.656;23.292;2023-06-22T10:32:45;94789.06;;;29.95;45.12
9676;BME280;4876;42.656;23.292;2023-06-22T10:35:12;94787.69;;;29.87;44.43
9676;BME280;4876;42.656;23.292;2023-06-22T10:37:43;94776.72;;;29.94;44.02
9676;BME280;4876;42.656;23.292;2023-06-22T10:40:11;94780.78;;;30.19;44.04
9676;BME280;4876;42.656;23.292;2023-06-22T10:42:38;94769.50;;;29.88;46.50
9676;BME280;4876;42.656;23.292;2023-06-22T10:45:06;94776.00;;;29.90;44.16
9676;BME280;4876;42.656;23.292;2023-06-22T10:47:33;94771.34;;;29.91;43.94
9676;BME280;4876;42.656;23.292;2023-06-22T10:50:01;94766.34;;;30.06;42.99
9676;BME280;4876;42.656;23.292;2023-06-22T10:52:28;94763.56;;;29.76;45.08
9676;BME280;4876;42.656;23.292;2023-06-22T10:54:56;94767.53;;;30.04;45.32
9676;BME280;4876;42.656;23.292;2023-06-22T10:57:23;94762.63;;;30.16;44.85
9676;BME280;4876;42.656;23.292;2023-06-22T10:59:50;94764.28;;;30.42;43.81
9676;BME280;4876;42.656;23.292;2023-06-22T11:02:17;94764.06;;;30.66;42.67
9676;BME280;4876;42.656;23.292;2023-06-22T11:04:44;94762.78;;;30.99;42.83
9676;BME280;4876;42.656;23.292;2023-06-22T11:07:11;94762.81;;;31.12;43.67
9676;BME280;4876;42.656;23.292;2023-06-22T11:09:38;94765.59;;;30.96;44.76
9676;BME280;4876;42.656;23.292;2023-06-22T11:12:07;94761.88;;;30.61;43.27
9676;BME280;4876;42.656;23.292;2023-06-22T11:14:33;94753.53;;;30.06;43.90
9676;BME280;4876;42.656;23.292;2023-06-22T11:17:00;94761.00;;;30.02;44.82
9676;BME280;4876;42.656;23.292;2023-06-22T11:19:27;94757.88;;;29.87;43.48
9676;BME280;4876;42.656;23.292;2023-06-22T11:21:54;94747.38;;;29.89;44.31
9676;BME280;4876;42.656;23.292;2023-06-22T11:24:21;94752.28;;;29.94;44.10
9676;BME280;4876;42.656;23.292;2023-06-22T11:26:47;94750.75;;;30.10;45.93
9676;BME280;4876;42.656;23.292;2023-06-22T11:29:16;94750.38;;;30.40;44.83
9676;BME280;4876;42.656;23.292;2023-06-22T11:31:42;94746.03;;;30.14;45.10
9676;BME280;4876;42.656;23.292;2023-06-22T11:34:09;94736.75;;;30.27;43.91
9676;BME280;4876;42.656;23.292;2023-06-22T11:36:36;94742.81;;;30.19;44.75
9676;BME280;4876;42.656;23.292;2023-06-22T11:39:03;94739.09;;;30.13;44.57
9676;BME280;4876;42.656;23.292;2023-06-22T11:41:30;94746.00;;;30.30;44.66
9676;BME280;4876;42.656;23.292;2023-06-22T11:43:57;94739.91;;;30.26;45.89
9676;BME280;4876;42.656;23.292;2023-06-22T11:46:25;94739.25;;;29.89;48.46
9676;BME280;4876;42.656;23.292;2023-06-22T11:48:52;94730.41;;;29.69;44.99
9676;BME280;4876;42.656;23.292;2023-06-22T11:51:18;94721.19;;;29.66;44.69
9676;BME280;4876;42.656;23.292;2023-06-22T11:53:45;94718.84;;;29.32;46.77
9676;BME280;4876;42.656;23.292;2023-06-22T11:56:12;94715.88;;;29.27;46.84
9676;BME280;4876;42.656;23.292;2023-06-22T11:58:39;94716.91;;;29.33;47.48
9676;BME280;4876;42.656;23.292;2023-06-22T12:01:06;94728.34;;;29.40;48.01
9676;BME280;4876;42.656;23.292;2023-06-22T12:03:34;94735.84;;;29.53;46.72
9676;BME280;4876;42.656;23.292;2023-06-22T12:06:01;94731.59;;;29.52;46.53
9676;BME280;4876;42.656;23.292;2023-06-22T12:08:27;94736.69;;;29.66;46.73
9676;BME280;4876;42.656;23.292;2023-06-22T12:10:54;94732.34;;;29.68;47.42
9676;BME280;4876;42.656;23.292;2023-06-22T12:13:21;94743.88;;;29.56;47.76
9676;BME280;4876;42.656;23.292;2023-06-22T12:15:48;94753.41;;;29.44;49.86
9676;BME280;4876;42.656;23.292;2023-06-22T12:18:14;94752.00;;;29.20;53.26
9676;BME280;4876;42.656;23.292;2023-06-22T12:20:43;94758.75;;;29.12;53.96
9676;BME280;4876;42.656;23.292;2023-06-22T12:23:10;94750.34;;;28.86;55.30
9676;BME280;4876;42.656;23.292;2023-06-22T12:25:37;94756.94;;;28.85;57.17
9676;BME280;4876;42.656;23.292;2023-06-22T12:28:04;94755.19;;;28.75;58.26
9676;BME280;4876;42.656;23.292;2023-06-22T12:30:33;94738.94;;;28.35;58.56
9676;BME280;4876;42.656;23.292;2023-06-22T12:32:59;94747.63;;;27.76;57.60
9676;BME280;4876;42.656;23.292;2023-06-22T12:35:26;94757.69;;;27.18;59.31
9676;BME280;4876;42.656;23.292;2023-06-22T12:37:54;94771.94;;;26.54;62.42
9676;BME280;4876;42.656;23.292;2023-06-22T12:40:21;94771.94;;;26.09;67.21
9676;BME280;4876;42.656;23.292;2023-06-22T12:42:48;94768.03;;;26.14;70.14
9676;BME280;4876;42.656;23.292;2023-06-22T12:45:15;94755.16;;;25.91;73.41
9676;BME280;4876;42.656;23.292;2023-06-22T12:47:42;94756.16;;;25.52;74.05
9676;BME280;4876;42.656;23.292;2023-06-22T12:50:09;94750.56;;;25.29;76.53
9676;BME280;4876;42.656;23.292;2023-06-22T12:52:36;94766.00;;;25.17;75.75
9676;BME280;4876;42.656;23.292;2023-06-22T12:55:06;94761.38;;;25.14;74.99
9676;BME280;4876;42.656;23.292;2023-06-22T12:57:33;94777.16;;;25.16;71.46
9676;BME280;4876;42.656;23.292;2023-06-22T13:00:00;94775.91;;;25.35;70.14
9676;BME280;4876;42.656;23.292;2023-06-22T13:02:27;94786.22;;;25.47;66.92
9676;BME280;4876;42.656;23.292;2023-06-22T13:04:54;94791.66;;;25.36;68.42
9676;BME280;4876;42.656;23.292;2023-06-22T13:07:21;94795.56;;;25.24;69.60
9676;BME280;4876;42.656;23.292;2023-06-22T13:09:47;94791.31;;;25.31;69.79
9676;BME280;4876;42.656;23.292;2023-06-22T13:12:18;94788.94;;;25.40;70.10